Time;durP1;ratioP1;P1;durP2;ratioP2;P2;SDS_P1;SDS_P2;PMS_P1;PMS_P2;Temp;Humidity;BMP_temperature;BMP_pressure;BME280_temperature;BME280_humidity;BME280_pressure;Samples;Min_cycle;Max_cycle;Signal;HPM_P1;HPM_P2
2022/05/05 00:00:10;;;;;;;5.27;4.77;;;14.80;99.90;;;;;;5073115;28;20401;-71
2022/05/05 00:02:35;;;;;;;4.70;4.30;;;14.80;99.90;;;;;;5073198;28;20185;-71
2022/05/05 00:05:02;;;;;;;6.20;4.90;;;14.80;99.90;;;;;;5073082;28;20415;-71
2022/05/05 00:07:27;;;;;;;4.90;4.40;;;14.80;99.90;;;;;;5073054;28;20198;-71
2022/05/05 00:09:53;;;;;;;6.03;5.17;;;14.80;99.90;;;;;;5073213;28;20443;-72
2022/05/05 00:15:04;;;;;;;4.43;3.80;;;14.70;99.90;;;;;;5072924;28;20247;-71
2022/05/05 00:17:32;;;;;;;5.17;3.50;;;14.70;99.90;;;;;;5072894;28;21015;-73
2022/05/05 00:19:57;;;;;;;5.00;3.90;;;14.70;99.90;;;;;;5072637;28;20512;-73
2022/05/05 00:22:23;;;;;;;3.63;3.33;;;14.70;99.90;;;;;;5072676;28;20483;-71
2022/05/05 00:24:48;;;;;;;6.00;3.93;;;14.70;99.90;;;;;;5072586;28;20166;-71
2022/05/05 00:27:14;;;;;;;4.30;3.63;;;14.70;99.90;;;;;;5072420;28;20169;-71
2022/05/05 00:29:39;;;;;;;5.83;4.00;;;14.70;99.90;;;;;;5072554;28;20167;-71
2022/05/05 00:32:05;;;;;;;4.30;3.80;;;14.70;99.90;;;;;;5072487;28;20198;-71
2022/05/05 00:34:31;;;;;;;4.23;3.83;;;14.60;99.90;;;;;;5072568;28;20170;-72
2022/05/05 00:36:56;;;;;;;4.87;4.37;;;14.60;99.90;;;;;;5072516;28;20201;-72
2022/05/05 00:39:21;;;;;;;5.20;4.00;;;14.60;99.90;;;;;;5072514;28;20228;-71
2022/05/05 00:41:47;;;;;;;4.50;3.90;;;14.60;99.90;;;;;;5072234;28;20187;-72
2022/05/05 00:44:15;;;;;;;5.80;4.00;;;14.60;99.90;;;;;;5072344;28;20166;-71
2022/05/05 00:46:46;;;;;;;4.53;4.10;;;14.60;99.90;;;;;;5072209;28;20907;-71
2022/05/05 00:49:12;;;;;;;4.93;4.40;;;14.60;99.90;;;;;;5072308;28;20519;-72
2022/05/05 00:51:37;;;;;;;7.03;4.97;;;14.50;99.90;;;;;;5072046;28;20546;-71
2022/05/05 00:54:03;;;;;;;5.53;4.00;;;14.50;99.90;;;;;;5072146;28;20633;-71
2022/05/05 00:56:29;;;;;;;4.47;4.07;;;14.40;99.90;;;;;;5071711;28;20241;-71
2022/05/05 00:58:57;;;;;;;5.27;4.77;;;14.40;99.90;;;;;;5072156;28;20435;-72
2022/05/05 01:01:23;;;;;;;4.67;4.27;;;14.30;99.90;;;;;;5071967;28;20535;-71
2022/05/05 01:03:50;;;;;;;6.43;4.70;;;14.20;99.90;;;;;;5072139;28;20408;-72
2022/05/05 01:06:16;;;;;;;4.30;3.90;;;14.10;99.90;;;;;;5072135;28;20170;-72
2022/05/05 01:08:43;;;;;;;4.27;3.87;;;14.10;99.90;;;;;;5072137;28;20577;-72
2022/05/05 01:11:09;;;;;;;5.10;4.60;;;14.00;99.90;;;;;;5072851;28;20803;-72
2022/05/05 01:13:41;;;;;;;5.00;4.00;;;13.90;99.90;;;;;;5071932;28;20400;-73
2022/05/05 01:16:08;;;;;;;5.90;4.60;;;13.80;99.90;;;;;;5071956;28;20622;-72
2022/05/05 01:18:34;;;;;;;7.47;4.60;;;13.80;99.90;;;;;;5072120;28;20854;-74
2022/05/05 01:20:59;;;;;;;5.70;4.67;;;13.70;99.90;;;;;;5071669;28;20436;-72
2022/05/05 01:23:26;;;;;;;5.83;5.30;;;13.70;99.90;;;;;;5071771;28;20432;-71
2022/05/05 01:28:44;;;;;;;6.60;4.73;;;13.60;99.90;;;;;;5072279;28;20277;-72
2022/05/05 01:31:10;;;;;;;4.43;4.07;;;13.50;99.90;;;;;;5071300;28;20451;-72
2022/05/05 01:33:35;;;;;;;5.10;3.40;;;13.50;99.90;;;;;;5071906;28;20454;-73
2022/05/05 01:36:02;;;;;;;4.60;3.93;;;13.40;99.90;;;;;;5071815;28;20194;-72
2022/05/05 01:38:40;;;;;;;3.30;3.00;;;13.30;99.90;;;;;;5072915;28;20232;-73
2022/05/05 01:41:07;;;;;;;5.47;3.77;;;13.20;99.90;;;;;;5071749;28;20417;-73
2022/05/05 01:43:34;;;;;;;3.50;3.10;;;13.20;99.90;;;;;;5070450;28;20470;-70
2022/05/05 01:45:59;;;;;;;3.50;3.20;;;13.10;99.90;;;;;;5071711;28;20416;-72
2022/05/05 01:48:25;;;;;;;3.50;3.20;;;13.10;99.90;;;;;;5071783;28;20454;-72
2022/05/05 01:50:50;;;;;;;7.60;3.70;;;13.00;99.90;;;;;;5071484;28;20664;-72
2022/05/05 01:53:16;;;;;;;3.13;2.80;;;13.00;99.90;;;;;;5071581;28;20170;-73
2022/05/05 01:55:42;;;;;;;4.90;2.87;;;12.90;99.90;;;;;;5071326;28;20205;-72
2022/05/05 01:58:07;;;;;;;3.90;2.60;;;13.00;99.90;;;;;;5071402;28;20166;-71
2022/05/05 02:00:33;;;;;;;3.20;2.80;;;12.90;99.90;;;;;;5071768;28;20189;-71
2022/05/05 02:02:59;;;;;;;4.50;2.80;;;12.90;99.90;;;;;;5071735;28;20516;-73
2022/05/05 02:05:24;;;;;;;3.70;3.30;;;12.90;99.90;;;;;;5071486;28;20177;-74
2022/05/05 02:07:50;;;;;;;4.43;3.40;;;12.80;99.90;;;;;;5071603;28;20261;-72
2022/05/05 02:10:17;;;;;;;4.07;3.17;;;12.70;99.90;;;;;;5071410;28;20190;-71
2022/05/05 02:12:44;;;;;;;3.70;3.40;;;12.70;99.90;;;;;;5071115;28;20596;-72
2022/05/05 02:15:11;;;;;;;4.97;4.53;;;12.60;99.90;;;;;;5071205;28;20445;-71
2022/05/05 02:17:39;;;;;;;4.97;4.27;;;12.50;99.90;;;;;;5071154;28;20396;-72
2022/05/05 02:20:07;;;;;;;3.30;3.00;;;12.60;99.90;;;;;;5071056;28;20388;-72
2022/05/05 02:22:33;;;;;;;4.50;3.93;;;12.50;99.90;;;;;;5071188;28;20476;-71
2022/05/05 02:24:59;;;;;;;3.63;3.33;;;12.40;99.90;;;;;;5071116;28;20524;-72
2022/05/05 02:27:25;;;;;;;4.40;3.53;;;12.50;99.90;;;;;;5071022;28;20910;-72
2022/05/05 02:29:51;;;;;;;4.03;3.60;;;12.40;99.90;;;;;;5071185;28;20664;-71
2022/05/05 02:32:17;;;;;;;7.00;3.60;;;12.40;99.90;;;;;;5070899;28;20507;-72
2022/05/05 02:34:44;;;;;;;5.60;4.37;;;12.30;99.90;;;;;;5071112;28;20847;-72
2022/05/05 02:39:54;;;;;;;4.87;3.57;;;12.30;99.90;;;;;;5070990;28;20745;-72
2022/05/05 02:42:20;;;;;;;4.77;3.13;;;12.30;99.90;;;;;;5072863;28;20499;-71
2022/05/05 02:44:45;;;;;;;6.00;3.57;;;12.30;99.90;;;;;;5074701;28;20197;-71
2022/05/05 02:47:11;;;;;;;10.47;4.10;;;12.30;99.90;;;;;;5074620;28;20432;-71
2022/05/05 02:49:37;;;;;;;6.77;4.00;;;12.30;99.90;;;;;;5074591;28;20188;-71
2022/05/05 02:52:04;;;;;;;5.33;3.17;;;12.30;99.90;;;;;;5074491;28;20198;-71
2022/05/05 02:54:47;;;;;;;4.70;4.10;;;12.30;99.90;;;;;;5074301;28;20545;-72
2022/05/05 02:57:16;;;;;;;5.70;4.47;;;12.30;99.90;;;;;;5074830;28;20457;-71
2022/05/05 02:59:42;;;;;;;4.53;4.10;;;12.30;99.90;;;;;;5075502;28;20480;-72
2022/05/05 03:02:08;;;;;;;4.93;3.87;;;12.20;99.90;;;;;;5075358;28;20823;-72
2022/05/05 03:04:33;;;;;;;4.67;3.80;;;12.20;99.90;;;;;;5074410;28;20188;-71
2022/05/05 03:06:59;;;;;;;6.37;3.70;;;12.30;99.90;;;;;;5074048;28;20483;-71
2022/05/05 03:09:24;;;;;;;4.80;3.80;;;12.20;99.90;;;;;;5074144;28;20173;-71
2022/05/05 03:11:50;;;;;;;3.83;3.50;;;12.20;99.90;;;;;;5074077;28;20247;-72
2022/05/05 03:14:15;;;;;;;4.97;4.20;;;12.20;99.90;;;;;;5074195;28;20656;-71
2022/05/05 03:16:41;;;;;;;5.83;4.37;;;12.20;99.90;;;;;;5073935;28;20257;-71
2022/05/05 03:19:06;;;;;;;5.93;3.93;;;12.20;99.90;;;;;;5074118;28;20174;-72
2022/05/05 03:21:32;;;;;;;5.70;4.00;;;12.20;99.90;;;;;;5073669;28;20204;-71
2022/05/05 03:23:57;;;;;;;4.90;4.17;;;12.20;99.90;;;;;;5074016;28;20163;-72
2022/05/05 03:26:23;;;;;;;5.30;3.70;;;12.20;99.90;;;;;;5074058;28;20688;-71
2022/05/05 03:28:48;;;;;;;3.90;3.10;;;12.20;99.90;;;;;;5073851;28;20205;-72
2022/05/05 03:31:14;;;;;;;4.90;3.53;;;12.10;99.90;;;;;;5073828;28;20221;-71
2022/05/05 03:33:39;;;;;;;5.97;4.80;;;12.10;99.90;;;;;;5073866;28;20167;-71
2022/05/05 03:36:05;;;;;;;5.83;4.57;;;12.10;99.90;;;;;;5073476;28;20614;-71
2022/05/05 03:38:30;;;;;;;3.47;3.17;;;12.10;99.90;;;;;;5073826;28;20173;-72
2022/05/05 03:40:56;;;;;;;5.33;3.77;;;12.10;99.90;;;;;;5073947;28;20267;-72
2022/05/05 03:43:21;;;;;;;6.73;5.30;;;12.00;99.90;;;;;;5073795;28;20647;-72
2022/05/05 03:45:47;;;;;;;7.60;4.10;;;12.00;99.90;;;;;;5073750;28;20198;-72
2022/05/05 03:48:13;;;;;;;4.40;4.00;;;12.00;99.90;;;;;;5073771;28;20181;-71
2022/05/05 03:50:38;;;;;;;4.90;4.10;;;12.00;99.90;;;;;;5073415;28;20381;-72
2022/05/05 03:53:05;;;;;;;5.10;3.80;;;11.90;99.90;;;;;;5072992;28;20513;-71
2022/05/05 03:55:31;;;;;;;6.33;4.60;;;11.90;99.90;;;;;;5073238;28;20194;-72
2022/05/05 03:57:56;;;;;;;6.13;5.00;;;11.90;99.90;;;;;;5073463;28;20465;-71
2022/05/05 04:00:23;;;;;;;4.17;3.77;;;11.80;99.90;;;;;;5055290;28;20186;-72
2022/05/05 04:03:30;;;;;;;5.17;4.50;;;11.80;99.90;;;;;;5073333;28;20610;-72
2022/05/05 04:05:34;;;;;;;4.77;3.97;;;11.80;99.90;;;;;;5073047;28;20409;-71
2022/05/05 04:08:04;;;;;;;5.83;4.53;;;11.80;99.90;;;;;;5073254;28;20421;-72
2022/05/05 04:10:30;;;;;;;6.70;4.50;;;11.80;99.90;;;;;;5072865;28;20842;-71
2022/05/05 04:12:56;;;;;;;6.50;5.20;;;11.80;99.90;;;;;;5072902;28;20508;-71
2022/05/05 04:15:22;;;;;;;7.00;4.60;;;11.80;99.90;;;;;;5072851;28;20451;-70
2022/05/05 04:17:48;;;;;;;6.10;4.73;;;11.80;99.90;;;;;;5073184;28;20401;-72
2022/05/05 04:20:13;;;;;;;5.20;4.70;;;11.80;99.90;;;;;;5072656;28;20984;-72
2022/05/05 04:22:39;;;;;;;5.10;4.53;;;11.80;99.90;;;;;;5072639;28;20397;-72
2022/05/05 04:25:05;;;;;;;4.93;4.43;;;11.80;99.90;;;;;;5072634;28;20170;-71
2022/05/05 04:27:31;;;;;;;4.33;3.70;;;11.80;99.90;;;;;;5072506;28;20584;-72
2022/05/05 04:29:57;;;;;;;8.80;5.60;;;11.70;99.90;;;;;;5072518;28;20546;-71
2022/05/05 04:32:22;;;;;;;8.77;5.43;;;11.70;99.90;;;;;;5054368;28;20493;-72
2022/05/05 04:34:48;;;;;;;5.97;4.50;;;11.70;99.90;;;;;;5072431;28;20166;-71
2022/05/05 04:37:13;;;;;;;5.70;4.47;;;11.70;99.90;;;;;;5072486;28;20206;-73
2022/05/05 04:39:39;;;;;;;5.40;4.40;;;11.70;99.90;;;;;;5072506;28;20177;-72
2022/05/05 04:42:06;;;;;;;6.97;4.83;;;11.70;99.90;;;;;;5072272;28;20194;-72
2022/05/05 04:44:31;;;;;;;7.70;4.57;;;11.70;99.90;;;;;;5072204;28;20404;-72
2022/05/05 04:46:57;;;;;;;7.50;5.30;;;11.70;99.90;;;;;;5072347;28;20407;-72
2022/05/05 04:49:22;;;;;;;9.00;4.50;;;11.60;99.90;;;;;;5072455;28;20265;-72
2022/05/05 04:51:48;;;;;;;6.07;4.87;;;11.70;99.90;;;;;;5072163;28;20223;-72
2022/05/05 04:54:13;;;;;;;5.50;4.17;;;11.70;99.90;;;;;;5072316;28;20169;-72
2022/05/05 04:56:39;;;;;;;6.83;4.37;;;11.70;99.90;;;;;;5072129;28;20229;-72
2022/05/05 04:59:04;;;;;;;6.00;4.70;;;11.70;99.90;;;;;;5072062;28;20167;-73
2022/05/05 05:01:30;;;;;;;5.23;4.70;;;11.70;99.90;;;;;;5068522;28;20230;-72
2022/05/05 05:03:55;;;;;;;6.77;4.87;;;11.80;99.90;;;;;;5068668;28;20170;-72
2022/05/05 05:06:21;;;;;;;6.57;4.70;;;11.80;99.90;;;;;;5070839;28;20166;-72
2022/05/05 05:08:47;;;;;;;5.10;4.60;;;11.90;99.90;;;;;;5072361;28;20558;-72
2022/05/05 05:11:12;;;;;;;7.83;5.17;;;12.00;99.90;;;;;;5070753;28;20277;-72
2022/05/05 05:13:38;;;;;;;5.00;4.50;;;12.10;99.90;;;;;;5071967;28;20890;-72
2022/05/05 05:16:04;;;;;;;5.17;4.50;;;12.20;99.90;;;;;;5071574;28;20205;-73
2022/05/05 05:18:30;;;;;;;7.40;4.67;;;12.20;99.90;;;;;;5076956;28;20174;-73
2022/05/05 05:20:56;;;;;;;6.70;4.90;;;12.30;99.90;;;;;;5071798;28;20205;-73
2022/05/05 05:23:21;;;;;;;9.23;6.80;;;12.30;99.90;;;;;;5072004;28;20416;-74
2022/05/05 05:25:47;;;;;;;8.10;5.30;;;12.30;99.90;;;;;;5071723;28;20637;-72
2022/05/05 05:28:13;;;;;;;6.10;4.83;;;12.30;99.90;;;;;;5071643;28;20527;-72
2022/05/05 05:30:39;;;;;;;9.10;5.70;;;12.40;99.90;;;;;;5053437;28;20207;-72
2022/05/05 05:33:05;;;;;;;5.57;4.60;;;12.50;99.90;;;;;;5071676;28;20411;-72
2022/05/05 05:35:31;;;;;;;6.03;5.40;;;12.60;99.90;;;;;;5071328;28;20452;-73
2022/05/05 05:37:56;;;;;;;6.33;4.60;;;12.50;99.90;;;;;;5071390;28;20413;-73
2022/05/05 05:40:22;;;;;;;7.57;5.10;;;12.40;99.90;;;;;;5071693;28;20547;-73
2022/05/05 05:42:47;;;;;;;5.40;3.97;;;12.40;99.90;;;;;;5071994;28;20162;-74
2022/05/05 05:45:13;;;;;;;6.83;4.67;;;12.20;99.90;;;;;;5071392;28;20182;-74
2022/05/05 05:47:38;;;;;;;8.03;5.27;;;12.20;99.90;;;;;;5071586;28;20178;-73
2022/05/05 05:50:04;;;;;;;5.10;4.33;;;12.20;99.90;;;;;;5071520;28;20668;-74
2022/05/05 05:52:30;;;;;;;5.97;4.60;;;12.30;99.90;;;;;;5071766;28;20197;-74
2022/05/05 05:54:56;;;;;;;5.33;3.53;;;12.30;99.90;;;;;;5071474;28;20220;-73
2022/05/05 05:57:21;;;;;;;4.13;3.60;;;12.40;99.90;;;;;;5071912;28;20404;-73
2022/05/05 05:59:46;;;;;;;4.70;4.20;;;12.40;99.90;;;;;;5071538;28;20536;-74
2022/05/05 06:04:56;;;;;;;5.00;3.97;;;12.40;99.90;;;;;;5071438;28;20178;-74
2022/05/05 06:07:22;;;;;;;4.60;4.20;;;12.70;99.90;;;;;;5071542;28;20409;-74
2022/05/05 06:09:47;;;;;;;5.10;4.57;;;12.90;99.90;;;;;;5071350;28;20202;-74
2022/05/05 06:12:13;;;;;;;5.43;4.47;;;13.00;99.90;;;;;;5061055;28;20680;-74
2022/05/05 06:14:38;;;;;;;5.13;4.60;;;13.20;99.90;;;;;;5054715;28;20614;-74
2022/05/05 06:17:04;;;;;;;4.70;3.70;;;13.20;99.90;;;;;;5072932;28;20263;-74
2022/05/05 06:19:29;;;;;;;4.90;4.27;;;13.30;99.90;;;;;;5075532;28;20170;-74
2022/05/05 06:21:57;;;;;;;5.07;3.93;;;13.20;99.90;;;;;;5075303;28;20208;-74
2022/05/05 06:24:23;;;;;;;5.53;5.03;;;13.70;99.90;;;;;;5075473;28;20166;-74
2022/05/05 06:26:48;;;;;;;4.23;3.83;;;14.10;99.90;;;;;;5075220;28;20444;-72
2022/05/05 06:29:14;;;;;;;4.57;4.07;;;14.70;99.90;;;;;;5075083;28;20497;-73
2022/05/05 06:31:39;;;;;;;4.10;3.70;;;15.70;99.90;;;;;;5074466;28;20235;-74
2022/05/05 06:34:05;;;;;;;7.87;4.03;;;15.00;99.90;;;;;;5074646;28;20180;-72
2022/05/05 06:36:30;;;;;;;4.87;3.80;;;15.60;99.90;;;;;;5065294;28;20211;-71
2022/05/05 06:38:56;;;;;;;4.10;3.70;;;16.00;99.90;;;;;;5054801;28;20171;-72
2022/05/05 06:41:21;;;;;;;5.30;4.07;;;15.30;99.90;;;;;;5055142;28;20680;-71
2022/05/05 06:43:46;;;;;;;5.37;4.20;;;15.50;99.90;;;;;;5072669;28;20223;-72
2022/05/05 06:46:12;;;;;;;3.93;3.60;;;15.20;99.90;;;;;;5074601;28;20204;-72
2022/05/05 06:48:38;;;;;;;4.63;4.20;;;14.70;99.90;;;;;;5074652;28;20175;-73
2022/05/05 06:51:04;;;;;;;5.13;4.50;;;14.60;99.90;;;;;;5074426;28;20191;-73
2022/05/05 06:53:29;;;;;;;6.03;4.30;;;14.70;99.90;;;;;;5074482;28;20177;-72
2022/05/05 06:55:57;;;;;;;5.30;4.60;;;14.90;99.90;;;;;;5074146;28;20794;-73
2022/05/05 06:58:23;;;;;;;3.13;2.83;;;15.10;99.90;;;;;;5074350;28;20170;-73
2022/05/05 07:03:35;;;;;;;6.37;3.97;;;15.30;99.90;;;;;;5043425;28;20201;-73
2022/05/05 07:06:01;;;;;;;3.83;3.53;;;15.20;99.90;;;;;;5074593;28;20410;-72
2022/05/05 07:08:27;;;;;;;4.80;4.00;;;15.20;99.90;;;;;;5074380;28;20538;-73
2022/05/05 07:10:53;;;;;;;7.53;4.60;;;15.60;99.90;;;;;;5074318;28;20453;-74
2022/05/05 07:13:20;;;;;;;7.57;3.67;;;15.40;99.90;;;;;;5074646;28;20410;-73
2022/05/05 07:15:46;;;;;;;3.63;3.20;;;15.10;99.90;;;;;;5074497;28;20254;-74
2022/05/05 07:18:11;;;;;;;5.47;4.50;;;15.70;99.90;;;;;;5074733;28;20430;-74
2022/05/05 07:20:36;;;;;;;4.70;3.60;;;16.20;99.90;;;;;;5074093;28;20254;-72
2022/05/05 07:23:02;;;;;;;5.20;4.70;;;16.40;99.90;;;;;;5073833;28;20178;-72
2022/05/05 07:25:28;;;;;;;3.50;3.20;;;16.40;99.90;;;;;;5074269;28;20186;-74
2022/05/05 07:27:53;;;;;;;6.77;3.73;;;16.10;99.90;;;;;;5073551;28;20771;-72
2022/05/05 07:30:19;;;;;;;4.93;3.57;;;15.50;99.90;;;;;;5073756;28;20196;-73
2022/05/05 07:32:45;;;;;;;5.10;3.80;;;15.40;99.90;;;;;;5074029;28;20168;-72
2022/05/05 07:35:11;;;;;;;4.57;3.93;;;15.70;99.90;;;;;;5073693;28;20479;-72
2022/05/05 07:37:37;;;;;;;5.03;4.60;;;15.70;99.90;;;;;;5074057;28;20174;-73
2022/05/05 07:40:04;;;;;;;3.93;3.53;;;16.00;99.90;;;;;;5074021;28;20401;-73
2022/05/05 07:42:30;;;;;;;4.53;4.20;;;15.30;99.90;;;;;;5073805;28;20964;-72
2022/05/05 07:44:55;;;;;;;5.50;4.50;;;15.40;99.90;;;;;;5074389;28;20407;-72
2022/05/05 07:47:21;;;;;;;5.00;4.60;;;15.30;99.90;;;;;;5073456;28;20226;-73
2022/05/05 07:49:46;;;;;;;6.27;5.07;;;15.20;99.90;;;;;;5065354;28;20209;-74
2022/05/05 07:52:12;;;;;;;4.27;3.87;;;15.40;99.90;;;;;;5073191;28;20207;-73
2022/05/05 07:54:38;;;;;;;4.40;3.67;;;16.10;99.90;;;;;;5073525;28;20178;-73
2022/05/05 07:57:06;;;;;;;6.13;3.90;;;16.70;99.90;;;;;;5072851;28;20198;-71
2022/05/05 07:59:32;;;;;;;4.90;3.53;;;17.20;99.90;;;;;;5073145;28;20942;-73
2022/05/05 08:01:58;;;;;;;3.17;2.87;;;18.10;99.90;;;;;;5073029;28;20501;-73
2022/05/05 08:04:24;;;;;;;3.87;3.17;;;18.10;99.90;;;;;;5073211;28;20637;-73
2022/05/05 08:06:49;;;;;;;5.77;3.70;;;18.10;99.90;;;;;;5073164;28;20406;-75
2022/05/05 08:09:15;;;;;;;5.30;3.60;;;18.20;99.90;;;;;;5073250;28;20424;-73
2022/05/05 08:11:40;;;;;;;5.27;3.27;;;18.00;99.90;;;;;;5073194;28;20185;-73
2022/05/05 08:14:07;;;;;;;4.70;3.60;;;18.90;99.90;;;;;;5070852;28;20210;-73
2022/05/05 08:16:33;;;;;;;3.70;3.10;;;18.30;99.90;;;;;;5053241;28;20195;-73
2022/05/05 08:18:58;;;;;;;3.30;3.00;;;19.80;99.90;;;;;;5053373;28;20786;-73
2022/05/05 08:21:24;;;;;;;3.80;3.27;;;20.00;99.90;;;;;;5052846;28;20198;-73
2022/05/05 08:28:27;;;;;;;6.70;3.47;;;19.90;99.90;;;;;;5053349;28;20592;-72
2022/05/05 08:29:19;;;;;;;3.23;3.03;;;21.20;99.90;;;;;;5053058;28;20822;-73
2022/05/05 08:31:44;;;;;;;3.87;3.03;;;20.80;99.90;;;;;;5053050;28;20465;-74
2022/05/05 08:34:10;;;;;;;4.17;3.70;;;19.50;99.90;;;;;;5053324;28;20175;-72
2022/05/05 08:36:36;;;;;;;4.57;3.57;;;19.60;99.90;;;;;;5062588;28;20209;-72
2022/05/05 08:39:01;;;;;;;3.30;3.00;;;20.80;99.90;;;;;;5073213;28;20411;-70
2022/05/05 08:41:27;;;;;;;3.70;2.77;;;20.60;99.90;;;;;;5072469;28;20201;-72
2022/05/05 08:43:53;;;;;;;3.60;3.30;;;21.70;99.90;;;;;;5072785;28;20208;-72
2022/05/05 08:46:23;;;;;;;5.80;3.60;;;21.20;99.90;;;;;;5072482;28;20612;-73
2022/05/05 08:48:50;;;;;;;4.27;3.07;;;21.40;99.90;;;;;;5065915;28;20245;-73
2022/05/05 08:51:18;;;;;;;3.73;3.43;;;22.60;99.90;;;;;;5070931;28;20518;-74
2022/05/05 08:53:47;;;;;;;3.80;3.03;;;21.80;99.90;;;;;;5071712;28;20420;-74
2022/05/05 08:56:13;;;;;;;2.70;2.50;;;22.20;99.90;;;;;;5054074;28;20449;-73
2022/05/05 08:58:39;;;;;;;3.53;3.10;;;21.40;99.90;;;;;;5053103;28;20424;-71
2022/05/05 09:01:04;;;;;;;2.77;2.50;;;21.00;99.90;;;;;;5072118;28;20767;-72
2022/05/05 09:03:30;;;;;;;3.40;2.40;;;21.00;99.90;;;;;;5074425;28;20746;-73
2022/05/05 09:05:56;;;;;;;3.40;3.10;;;20.30;99.90;;;;;;5092396;28;20663;-72
2022/05/05 09:08:29;;;;;;;4.60;2.80;;;20.40;99.90;;;;;;5083672;28;20606;-72
2022/05/05 09:10:59;;;;;;;5.77;3.87;;;20.50;99.90;;;;;;5057603;28;20444;-72
2022/05/05 09:13:30;;;;;;;6.53;3.00;;;20.30;99.90;;;;;;5052063;28;20439;-72
2022/05/05 09:15:56;;;;;;;2.70;2.40;;;20.30;99.90;;;;;;5052353;28;20471;-72
2022/05/05 09:18:28;;;;;;;3.00;2.70;;;20.80;99.90;;;;;;5052069;28;20461;-72
2022/05/05 09:20:54;;;;;;;3.00;2.80;;;20.80;99.90;;;;;;5051884;28;20494;-73
2022/05/05 09:26:35;;;;;;;2.80;2.33;;;20.70;99.90;;;;;;5045218;28;20423;-72
2022/05/05 09:29:18;;;;;;;3.00;2.30;;;21.40;99.90;;;;;;5052111;28;20895;-73
2022/05/05 09:31:44;;;;;;;2.93;2.50;;;22.10;99.50;;;;;;5051585;28;20424;-72
2022/05/05 09:34:20;;;;;;;2.63;2.43;;;20.90;99.90;;;;;;5051851;28;20916;-74
2022/05/05 09:36:47;;;;;;;3.10;2.90;;;21.60;99.90;;;;;;5052085;28;20197;-74
2022/05/05 09:39:13;;;;;;;2.70;2.50;;;21.90;99.90;;;;;;5051943;28;20488;-72
2022/05/05 09:41:46;;;;;;;4.17;2.70;;;21.50;98.60;;;;;;5052077;28;20459;-75
2022/05/05 09:44:13;;;;;;;3.40;3.10;;;21.20;99.00;;;;;;5051596;28;20174;-73
2022/05/05 09:46:40;;;;;;;3.27;2.60;;;20.50;99.70;;;;;;5052348;28;21004;-73
2022/05/05 09:49:11;;;;;;;3.40;2.90;;;20.60;99.90;;;;;;5071577;28;20414;-72
2022/05/05 09:51:39;;;;;;;2.30;2.10;;;19.50;99.90;;;;;;5071408;28;20442;-73
2022/05/05 09:59:42;;;;;;;3.00;2.70;;;20.10;99.40;;;;;;5072304;28;20429;-72
2022/05/05 10:05:17;;;;;;;3.30;2.80;;;20.80;98.00;;;;;;5052439;28;20436;-76
2022/05/05 10:07:44;;;;;;;3.73;3.43;;;20.00;99.90;;;;;;5051851;28;20398;-73
2022/05/05 10:10:11;;;;;;;2.87;2.53;;;19.90;98.00;;;;;;5052997;28;20404;-73
2022/05/05 10:12:37;;;;;;;2.60;2.37;;;19.40;98.30;;;;;;5052048;28;20403;-73
2022/05/05 10:15:04;;;;;;;4.27;3.33;;;19.30;98.90;;;;;;5051541;28;20407;-73
2022/05/05 10:17:30;;;;;;;3.87;3.47;;;19.10;99.90;;;;;;5051978;28;20419;-73
2022/05/05 10:19:56;;;;;;;3.10;2.80;;;19.50;99.60;;;;;;5051706;28;20435;-72
2022/05/05 10:22:41;;;;;;;3.00;2.73;;;19.60;99.70;;;;;;5051469;28;20419;-72
2022/05/05 10:25:13;;;;;;;3.50;3.20;;;19.40;99.70;;;;;;5059041;28;20186;-71
2022/05/05 10:27:44;;;;;;;3.07;2.70;;;19.00;99.90;;;;;;5063215;28;20423;-71
2022/05/05 10:30:29;;;;;;;5.13;3.30;;;18.70;99.90;;;;;;5071359;28;20439;-71
2022/05/05 10:32:56;;;;;;;5.00;3.33;;;18.50;99.90;;;;;;5071647;28;20405;-70
2022/05/05 10:35:23;;;;;;;3.83;3.33;;;17.70;99.90;;;;;;5071201;28;20410;-71
2022/05/05 10:37:48;;;;;;;4.87;3.30;;;18.10;99.90;;;;;;5071466;28;20406;-71
2022/05/05 10:40:14;;;;;;;3.90;3.07;;;19.30;99.90;;;;;;5071865;28;20404;-72
2022/05/05 10:42:45;;;;;;;4.57;3.10;;;20.00;99.80;;;;;;5071749;28;20172;-72
2022/05/05 10:45:26;;;;;;;3.23;2.40;;;20.20;99.90;;;;;;5071755;28;20184;-72
2022/05/05 10:47:52;;;;;;;3.77;3.40;;;19.50;99.90;;;;;;5071524;28;20404;-72
2022/05/05 10:50:42;;;;;;;3.63;3.00;;;19.00;99.90;;;;;;5071373;28;20470;-71
2022/05/05 10:53:23;;;;;;;3.10;2.80;;;19.40;99.90;;;;;;5071611;28;20263;-72
2022/05/05 10:55:49;;;;;;;3.50;3.20;;;19.40;99.90;;;;;;5071366;28;20458;-72
2022/05/05 10:58:52;;;;;;;4.57;3.00;;;19.20;99.90;;;;;;5071353;28;20415;-72
2022/05/05 11:01:18;;;;;;;3.40;2.90;;;18.80;99.90;;;;;;5070979;28;20213;-72
2022/05/05 11:04:06;;;;;;;3.70;2.90;;;18.70;99.90;;;;;;5072236;28;20989;-72
2022/05/05 11:06:32;;;;;;;5.40;3.60;;;19.30;99.90;;;;;;5074524;28;20474;-72
2022/05/05 11:08:58;;;;;;;4.23;3.10;;;18.60;99.90;;;;;;5074822;28;20410;-73
2022/05/05 11:11:42;;;;;;;3.20;2.63;;;18.40;99.90;;;;;;5055841;28;20441;-72
2022/05/05 11:22:55;;;;;;;3.63;3.20;;;19.10;99.40;;;;;;5054629;28;20444;-73
2022/05/05 11:25:21;;;;;;;5.10;3.33;;;18.90;98.90;;;;;;5063316;28;20402;-72
2022/05/05 11:27:55;;;;;;;4.20;3.00;;;19.00;99.00;;;;;;5074135;28;20512;-73
2022/05/05 11:30:20;;;;;;;3.57;3.27;;;19.00;98.80;;;;;;5074096;28;20182;-71
2022/05/05 11:32:46;;;;;;;3.90;3.00;;;19.20;98.50;;;;;;5073998;28;20511;-73
2022/05/05 11:35:11;;;;;;;3.37;3.17;;;19.00;98.60;;;;;;5073166;28;20174;-73
2022/05/05 11:37:42;;;;;;;5.40;4.10;;;19.10;98.80;;;;;;5073966;28;20172;-73
2022/05/05 11:40:08;;;;;;;2.50;2.40;;;19.10;98.80;;;;;;5073864;28;20440;-73
2022/05/05 11:44:14;;;;;;;3.80;2.93;;;18.80;98.70;;;;;;5081169;28;20465;-71
2022/05/05 11:45:19;;;;;;;3.53;3.13;;;18.80;98.60;;;;;;5053915;28;20408;-71
2022/05/05 11:47:45;;;;;;;6.30;3.27;;;18.70;98.30;;;;;;5053811;28;20417;-71
2022/05/05 11:50:10;;;;;;;5.50;3.80;;;18.70;98.50;;;;;;5078222;23;20332;-66
2022/05/05 11:52:36;;;;;;;3.67;2.87;;;18.90;98.30;;;;;;5060314;28;20175;-66
2022/05/05 11:55:05;;;;;;;2.93;2.73;;;18.90;98.80;;;;;;5071809;28;20185;-67
2022/05/05 11:57:34;;;;;;;3.13;2.83;;;19.00;97.70;;;;;;5072425;28;20215;-67
2022/05/05 12:02:45;;;;;;;3.67;2.93;;;18.80;99.30;;;;;;5066971;28;20445;-68
2022/05/05 12:05:10;;;;;;;3.90;3.60;;;19.30;98.90;;;;;;5072359;28;20407;-67
2022/05/05 12:07:36;;;;;;;3.37;2.90;;;19.60;98.30;;;;;;5072170;28;20171;-67
2022/05/05 12:10:07;;;;;;;5.40;4.00;;;19.20;98.40;;;;;;5070986;28;20191;-67
2022/05/05 12:12:36;;;;;;;2.90;2.60;;;19.00;97.90;;;;;;5072065;28;20413;-67
2022/05/05 12:15:05;;;;;;;4.23;2.80;;;19.30;98.30;;;;;;5071864;28;20425;-67
2022/05/05 12:17:45;;;;;;;3.57;3.00;;;19.20;98.50;;;;;;5072199;28;20456;-67
2022/05/05 12:20:12;;;;;;;5.20;3.30;;;19.30;97.90;;;;;;5071989;28;20421;-68
2022/05/05 12:22:39;;;;;;;3.20;2.47;;;19.20;98.20;;;;;;5072067;28;20408;-68
2022/05/05 12:25:12;;;;;;;3.63;2.67;;;19.00;98.40;;;;;;5071839;28;20397;-67
2022/05/05 12:27:38;;;;;;;3.10;2.77;;;19.30;97.70;;;;;;5072144;28;20405;-67
2022/05/05 12:30:05;;;;;;;4.43;2.90;;;19.40;97.10;;;;;;5072093;28;20804;-67
2022/05/05 12:32:31;;;;;;;3.10;2.53;;;19.50;97.00;;;;;;5071873;28;20413;-67
2022/05/05 12:35:10;;;;;;;3.27;2.93;;;19.60;96.60;;;;;;5053756;28;20410;-67
2022/05/05 12:37:36;;;;;;;3.60;3.00;;;19.90;95.80;;;;;;5071710;28;20413;-67
2022/05/05 12:40:06;;;;;;;4.97;3.13;;;20.20;95.30;;;;;;5071492;28;20434;-67
2022/05/05 12:42:48;;;;;;;3.77;3.20;;;19.80;95.20;;;;;;5071775;28;20185;-67
2022/05/05 12:45:15;;;;;;;3.50;3.00;;;19.10;96.20;;;;;;5051887;28;20751;-67
2022/05/05 12:47:42;;;;;;;3.87;2.50;;;19.30;96.20;;;;;;5051901;28;21010;-68
2022/05/05 12:50:30;;;;;;;3.17;2.87;;;18.80;96.90;;;;;;5051852;28;20827;-67
2022/05/05 13:01:22;;;;;;;2.83;2.63;;;19.10;95.10;;;;;;5014424;28;20425;-67
2022/05/05 13:03:47;;;;;;;3.80;3.37;;;19.30;95.70;;;;;;5071366;28;20414;-67
2022/05/05 13:06:13;;;;;;;2.23;2.00;;;19.40;94.60;;;;;;5071508;28;20418;-67
2022/05/05 13:08:38;;;;;;;2.90;2.47;;;19.10;95.10;;;;;;5071436;28;20175;-67
2022/05/05 13:11:04;;;;;;;2.77;2.40;;;19.20;95.50;;;;;;5066026;28;20569;-67
2022/05/05 13:13:29;;;;;;;2.90;2.70;;;19.50;94.00;;;;;;5071400;28;20171;-66
2022/05/05 13:15:55;;;;;;;3.10;2.90;;;20.00;93.50;;;;;;5071497;28;20188;-66
2022/05/05 13:18:20;;;;;;;2.93;2.37;;;20.30;92.90;;;;;;5071816;28;20689;-66
2022/05/05 13:20:46;;;;;;;2.27;2.17;;;20.20;93.10;;;;;;5071542;28;20184;-66
2022/05/05 13:23:11;;;;;;;5.63;2.77;;;20.40;93.50;;;;;;5071530;28;20207;-66
2022/05/05 13:25:37;;;;;;;7.87;3.90;;;20.00;93.30;;;;;;5070864;28;20658;-66
2022/05/05 13:28:03;;;;;;;2.50;2.30;;;20.30;92.10;;;;;;5071011;28;20229;-66
2022/05/05 13:30:29;;;;;;;3.00;2.80;;;20.30;92.90;;;;;;5071295;28;20272;-66
2022/05/05 13:32:54;;;;;;;2.83;2.60;;;20.00;92.10;;;;;;5071520;28;20437;-66
2022/05/05 13:35:20;;;;;;;3.23;2.37;;;19.30;92.80;;;;;;5071433;28;20640;-66